City of Grants Pass

Grants Pass AirportĀ 

Current Weather Conditions Medford Airport:
MEDFORD, OR
Metar
KMFR 211553Z 00000KT 10SM BKN030 08/04 A3027 RMK AO2 SLP252 T00830039

15:53 UTC

Wind: 0° 0kt

Visibility: 10 SM

Sky: BKN 3000 ft

Temp: 8 deg C / 46.4 deg F

Dewpoint: 4 deg C / 39.2 deg F

Pressure: 30.27 inHg

TAF
KMFR 211415Z 2114/2212 00000KT P6SM BKN030 FM211700 VRB03KT P6SM SCT030 FM212300 33008KT P6SM SCT250 FM220400 00000KT P6SM SCT250